PWSweather.com
Personal Weather Stations
Station Observations
TARRYHILL
Tarrytown, NY 10591

Tarrytown, NY 10591

Lat: 41.05185, Lon: -73.85296

Elevation: 341

Station Type: Davis Vantage Vue

www.tarrytownnyweather.com

High Low Average
Temperature 30.8°F-0.7°F 16.7°F-8.5°F 25.9°F-3.4°F
Dew Point 27.4°F-2.6°F 13.2°F-10.4°F 21.7°F-5.7°F
Winds 1.2 mph WNW1.9 mph WNW Calm Calm Calm Calm
Wind Gusts 2.3 mph3.7 mph -- 0.3 mph0.5 mph
Humidity 88% 79% 84%
Pressure 30.55 in1034.50 in 30.36 in1028.10 in -
Precipitation 0.00 in0.00 in - -
Hour Temp Dew Point Humidity Winds Wind Gusts Pressure Precip Precip Rate Daily Precip Total
12:00 AM 16.7°F-8.5°C 13.2°F-10.4°C 86% Calm Calm -- 30.53 in1033.9 mb - 0.00 in0.0 mm 0.00 in0.0 mm
12:15 AM 16.7°F-8.5°C 13.2°F-10.4°C 86% Calm Calm -- 30.53 in1033.9 mb - 0.00 in0.0 mm 0.00 in0.0 mm
12:30 AM 16.9°F-8.4°C 13.4°F-10.3°C 86% Calm Calm -- 30.52 in1033.5 mb - 0.00 in0.0 mm 0.00 in0.0 mm
12:45 AM 17.2°F-8.2°C 13.7°F-10.2°C 86% Calm Calm -- 30.53 in1033.9 mb - 0.00 in0.0 mm 0.00 in0.0 mm
01:00 AM 17.8°F-7.9°C 14.4°F-9.8°C 86% Calm Calm -- 30.52 in1033.5 mb - 0.00 in0.0 mm 0.00 in0.0 mm
01:15 AM 18.6°F-7.4°C 14.6°F-9.7°C 84% Calm Calm -- 30.52 in1033.5 mb - 0.00 in0.0 mm 0.00 in0.0 mm
01:30 AM 19.1°F-7.2°C 14.5°F-9.7°C 82% Calm Calm -- 30.52 in1033.5 mb - 0.00 in0.0 mm 0.00 in0.0 mm
01:45 AM 19.3°F-7.1°C 14.7°F-9.6°C 82% Calm Calm 1.2 mph1.9 kmh 30.52 in1033.5 mb - 0.00 in0.0 mm 0.00 in0.0 mm
02:00 AM 19.6°F-6.9°C 14.7°F-9.6°C 81% Calm Calm 1.2 mph1.9 kmh 30.52 in1033.5 mb - 0.00 in0.0 mm 0.00 in0.0 mm
02:15 AM 20.0°F-6.7°C 15.1°F-9.4°C 81% Calm Calm -- 30.53 in1033.9 mb - 0.00 in0.0 mm 0.00 in0.0 mm
02:30 AM 20.4°F-6.4°C 15.2°F-9.3°C 80% Calm Calm 1.2 mph1.9 kmh 30.53 in1033.9 mb - 0.00 in0.0 mm 0.00 in0.0 mm
02:45 AM 20.3°F-6.5°C 14.9°F-9.5°C 79% Calm Calm 1.2 mph1.9 kmh 30.54 in1034.2 mb - 0.00 in0.0 mm 0.00 in0.0 mm
03:00 AM 20.6°F-6.3°C 15.1°F-9.4°C 79% Calm Calm -- 30.53 in1033.9 mb - 0.00 in0.0 mm 0.00 in0.0 mm
03:15 AM 20.7°F-6.3°C 15.5°F-9.2°C 80% Calm Calm -- 30.53 in1033.9 mb - 0.00 in0.0 mm 0.00 in0.0 mm
03:30 AM 20.8°F-6.2°C 15.6°F-9.1°C 80% Calm Calm -- 30.53 in1033.9 mb - 0.00 in0.0 mm 0.00 in0.0 mm
03:45 AM 20.9°F-6.2°C 15.7°F-9.1°C 80% Calm Calm -- 30.54 in1034.2 mb - 0.00 in0.0 mm 0.00 in0.0 mm
04:00 AM 21.0°F-6.1°C 15.8°F-9.0°C 80% Calm Calm -- 30.54 in1034.2 mb - 0.00 in0.0 mm 0.00 in0.0 mm
04:15 AM 21.2°F-6.0°C 16.3°F-8.7°C 81% Calm Calm -- 30.54 in1034.2 mb - 0.00 in0.0 mm 0.00 in0.0 mm
04:30 AM 21.4°F-5.9°C 16.5°F-8.6°C 81% Calm Calm -- 30.54 in1034.2 mb - 0.00 in0.0 mm 0.00 in0.0 mm
04:45 AM 21.5°F-5.8°C 16.9°F-8.4°C 82% Calm Calm -- 30.53 in1033.9 mb - 0.00 in0.0 mm 0.00 in0.0 mm
05:00 AM 21.6°F-5.8°C 17.0°F-8.3°C 82% Calm Calm -- 30.54 in1034.2 mb - 0.00 in0.0 mm 0.00 in0.0 mm
05:15 AM 21.7°F-5.7°C 17.0°F-8.3°C 82% Calm Calm -- 30.54 in1034.2 mb - 0.00 in0.0 mm 0.00 in0.0 mm
05:30 AM 22.0°F-5.6°C 17.6°F-8.0°C 83% Calm Calm -- 30.54 in1034.2 mb - 0.00 in0.0 mm 0.00 in0.0 mm
05:45 AM 21.9°F-5.6°C 17.5°F-8.1°C 83% Calm Calm -- 30.54 in1034.2 mb - 0.00 in0.0 mm 0.00 in0.0 mm
06:00 AM 21.8°F-5.7°C 17.4°F-8.1°C 83% Calm Calm -- 30.53 in1033.9 mb - 0.00 in0.0 mm 0.00 in0.0 mm
06:15 AM 21.8°F-5.7°C 17.4°F-8.1°C 83% Calm Calm -- 30.54 in1034.2 mb - 0.00 in0.0 mm 0.00 in0.0 mm
06:30 AM 22.1°F-5.5°C 17.7°F-7.9°C 83% Calm Calm -- 30.54 in1034.2 mb - 0.00 in0.0 mm 0.00 in0.0 mm
06:45 AM 22.3°F-5.4°C 17.9°F-7.8°C 83% Calm Calm -- 30.55 in1034.5 mb - 0.00 in0.0 mm 0.00 in0.0 mm
07:00 AM 22.4°F-5.3°C 18.0°F-7.8°C 83% Calm Calm 1.2 mph1.9 kmh 30.55 in1034.5 mb - 0.00 in0.0 mm 0.00 in0.0 mm
07:15 AM 22.5°F-5.3°C 18.1°F-7.7°C 83% Calm Calm -- 30.54 in1034.2 mb - 0.00 in0.0 mm 0.00 in0.0 mm
07:30 AM 22.8°F-5.1°C 18.7°F-7.4°C 84% Calm Calm 1.2 mph1.9 kmh 30.55 in1034.5 mb - 0.00 in0.0 mm 0.00 in0.0 mm
07:45 AM 22.9°F-5.1°C 18.8°F-7.3°C 84% Calm Calm -- 30.55 in1034.5 mb - 0.00 in0.0 mm 0.00 in0.0 mm
08:00 AM 23.2°F-4.9°C 19.4°F-7.0°C 85% Calm Calm -- 30.55 in1034.5 mb - 0.00 in0.0 mm 0.00 in0.0 mm
08:15 AM 23.4°F-4.8°C 19.6°F-6.9°C 85% Calm Calm -- 30.54 in1034.2 mb - 0.00 in0.0 mm 0.00 in0.0 mm
08:30 AM 23.6°F-4.7°C 19.7°F-6.8°C 85% Calm Calm 1.2 mph1.9 kmh 30.54 in1034.2 mb - 0.00 in0.0 mm 0.00 in0.0 mm
08:45 AM 23.7°F-4.6°C 19.9°F-6.7°C 85% Calm Calm -- 30.54 in1034.2 mb - 0.00 in0.0 mm 0.00 in0.0 mm
09:00 AM 24.3°F-4.3°C 20.7°F-6.3°C 86% Calm Calm -- 30.53 in1033.9 mb - 0.00 in0.0 mm 0.00 in0.0 mm
09:15 AM 24.7°F-4.1°C 21.1°F-6.1°C 86% Calm Calm -- 30.54 in1034.2 mb - 0.00 in0.0 mm 0.00 in0.0 mm
09:30 AM 25.0°F-3.9°C 21.4°F-5.9°C 86% Calm Calm -- 30.54 in1034.2 mb - 0.00 in0.0 mm 0.00 in0.0 mm
09:45 AM 25.4°F-3.7°C 21.8°F-5.7°C 86% Calm Calm 1.2 mph1.9 kmh 30.54 in1034.2 mb - 0.00 in0.0 mm 0.00 in0.0 mm
10:00 AM 25.9°F-3.4°C 22.0°F-5.6°C 85% Calm Calm 1.2 mph1.9 kmh 30.54 in1034.2 mb - 0.00 in0.0 mm 0.00 in0.0 mm
10:15 AM 26.3°F-3.2°C 22.4°F-5.3°C 85% Calm Calm 1.2 mph1.9 kmh 30.54 in1034.2 mb - 0.00 in0.0 mm 0.00 in0.0 mm
10:30 AM 26.6°F-3.0°C 22.7°F-5.2°C 85% Calm Calm 1.2 mph1.9 kmh 30.54 in1034.2 mb - 0.00 in0.0 mm 0.00 in0.0 mm
10:45 AM 27.5°F-2.5°C 23.6°F-4.7°C 85% Calm Calm -- 30.53 in1033.9 mb - 0.00 in0.0 mm 0.00 in0.0 mm
11:00 AM 27.7°F-2.4°C 23.5°F-4.7°C 84% Calm Calm -- 30.53 in1033.9 mb - 0.00 in0.0 mm 0.00 in0.0 mm
11:15 AM 28.0°F-2.2°C 23.8°F-4.6°C 84% Calm Calm 1.2 mph1.9 kmh 30.52 in1033.5 mb - 0.00 in0.0 mm 0.00 in0.0 mm
11:30 AM 27.4°F-2.6°C 22.9°F-5.1°C 83% Calm Calm -- 30.52 in1033.5 mb - 0.00 in0.0 mm 0.00 in0.0 mm
11:45 AM 27.2°F-2.7°C 23.0°F-5.0°C 84% Calm Calm 1.2 mph1.9 kmh 30.51 in1033.2 mb - 0.00 in0.0 mm 0.00 in0.0 mm
12:00 PM 27.5°F-2.5°C 23.3°F-4.8°C 84% Calm Calm -- 30.50 in1032.8 mb - 0.00 in0.0 mm 0.00 in0.0 mm
12:15 PM 27.5°F-2.5°C 23.0°F-5.0°C 83% 1.2 mph WNW1.9 kmh WNW 2.3 mph3.7 kmh 30.49 in1032.5 mb - 0.00 in0.0 mm 0.00 in0.0 mm
12:30 PM 27.8°F-2.3°C 23.3°F-4.8°C 83% Calm Calm 1.2 mph1.9 kmh 30.48 in1032.2 mb - 0.00 in0.0 mm 0.00 in0.0 mm
12:45 PM 27.6°F-2.4°C 23.4°F-4.8°C 84% Calm Calm 1.2 mph1.9 kmh 30.48 in1032.2 mb - 0.00 in0.0 mm 0.00 in0.0 mm
01:00 PM 27.9°F-2.3°C 23.7°F-4.6°C 84% Calm Calm -- 30.47 in1031.8 mb - 0.00 in0.0 mm 0.00 in0.0 mm
01:15 PM 28.5°F-1.9°C 24.0°F-4.4°C 83% Calm Calm -- 30.47 in1031.8 mb - 0.00 in0.0 mm 0.00 in0.0 mm
01:30 PM 28.5°F-1.9°C 24.0°F-4.4°C 83% Calm Calm 1.2 mph1.9 kmh 30.47 in1031.8 mb - 0.00 in0.0 mm 0.00 in0.0 mm
01:45 PM 28.5°F-1.9°C 24.0°F-4.4°C 83% Calm Calm 2.3 mph3.7 kmh 30.47 in1031.8 mb - 0.00 in0.0 mm 0.00 in0.0 mm
02:00 PM 29.3°F-1.5°C 24.7°F-4.1°C 83% Calm Calm -- 30.47 in1031.8 mb - 0.00 in0.0 mm 0.00 in0.0 mm
02:15 PM 29.7°F-1.3°C 24.9°F-3.9°C 82% Calm Calm -- 30.46 in1031.5 mb - 0.00 in0.0 mm 0.00 in0.0 mm
02:30 PM 29.4°F-1.4°C 24.6°F-4.1°C 82% Calm Calm -- 30.46 in1031.5 mb - 0.00 in0.0 mm 0.00 in0.0 mm
02:45 PM 29.5°F-1.4°C 24.7°F-4.1°C 82% Calm Calm 1.2 mph1.9 kmh 30.46 in1031.5 mb - 0.00 in0.0 mm 0.00 in0.0 mm
03:00 PM 29.5°F-1.4°C 24.7°F-4.1°C 82% Calm Calm 1.2 mph1.9 kmh 30.46 in1031.5 mb - 0.00 in0.0 mm 0.00 in0.0 mm
03:15 PM 29.7°F-1.3°C 24.9°F-3.9°C 82% Calm Calm -- 30.46 in1031.5 mb - 0.00 in0.0 mm 0.00 in0.0 mm
03:30 PM 29.6°F-1.3°C 24.8°F-4.0°C 82% Calm Calm -- 30.46 in1031.5 mb - 0.00 in0.0 mm 0.00 in0.0 mm
03:45 PM 30.0°F-1.1°C 25.2°F-3.8°C 82% Calm Calm -- 30.45 in1031.2 mb - 0.00 in0.0 mm 0.00 in0.0 mm
04:00 PM 30.4°F-0.9°C 25.6°F-3.6°C 82% Calm Calm -- 30.45 in1031.2 mb - 0.00 in0.0 mm 0.00 in0.0 mm
04:15 PM 30.2°F-1.0°C 25.4°F-3.7°C 82% Calm Calm -- 30.45 in1031.2 mb - 0.00 in0.0 mm 0.00 in0.0 mm
04:30 PM 30.3°F-0.9°C 25.5°F-3.6°C 82% Calm Calm -- 30.45 in1031.2 mb - 0.00 in0.0 mm 0.00 in0.0 mm
04:45 PM 30.5°F-0.8°C 25.7°F-3.5°C 82% Calm Calm -- 30.45 in1031.2 mb - 0.00 in0.0 mm 0.00 in0.0 mm
05:00 PM 30.0°F-1.1°C 25.2°F-3.8°C 82% Calm Calm -- 30.45 in1031.2 mb - 0.00 in0.0 mm 0.00 in0.0 mm
05:15 PM 29.6°F-1.3°C 25.1°F-3.8°C 83% Calm Calm -- 30.45 in1031.2 mb - 0.00 in0.0 mm 0.00 in0.0 mm
05:30 PM 29.4°F-1.4°C 25.2°F-3.8°C 84% Calm Calm -- 30.44 in1030.8 mb - 0.00 in0.0 mm 0.00 in0.0 mm
05:45 PM 29.7°F-1.3°C 25.7°F-3.5°C 85% Calm Calm -- 30.44 in1030.8 mb - 0.00 in0.0 mm 0.00 in0.0 mm
06:00 PM 29.5°F-1.4°C 25.6°F-3.6°C 85% Calm Calm -- 30.44 in1030.8 mb - 0.00 in0.0 mm 0.00 in0.0 mm
06:15 PM 29.5°F-1.4°C 25.8°F-3.4°C 86% Calm Calm -- 30.44 in1030.8 mb - 0.00 in0.0 mm 0.00 in0.0 mm
06:30 PM 29.7°F-1.3°C 25.7°F-3.5°C 85% Calm Calm -- 30.44 in1030.8 mb - 0.00 in0.0 mm 0.00 in0.0 mm
06:45 PM 29.8°F-1.2°C 25.6°F-3.6°C 84% Calm Calm -- 30.44 in1030.8 mb - 0.00 in0.0 mm 0.00 in0.0 mm
07:00 PM 29.6°F-1.3°C 25.6°F-3.6°C 85% Calm Calm -- 30.44 in1030.8 mb - 0.00 in0.0 mm 0.00 in0.0 mm
07:15 PM 29.4°F-1.4°C 25.4°F-3.7°C 85% Calm Calm -- 30.44 in1030.8 mb - 0.00 in0.0 mm 0.00 in0.0 mm
07:30 PM 29.6°F-1.3°C 25.6°F-3.6°C 85% Calm Calm -- 30.44 in1030.8 mb - 0.00 in0.0 mm 0.00 in0.0 mm
07:45 PM 29.7°F-1.3°C 26.0°F-3.3°C 86% Calm Calm -- 30.43 in1030.5 mb - 0.00 in0.0 mm 0.00 in0.0 mm
08:00 PM 29.7°F-1.3°C 25.7°F-3.5°C 85% Calm Calm -- 30.43 in1030.5 mb - 0.00 in0.0 mm 0.00 in0.0 mm
08:15 PM 30.0°F-1.1°C 26.3°F-3.2°C 86% Calm Calm -- 30.43 in1030.5 mb - 0.00 in0.0 mm 0.00 in0.0 mm
08:30 PM 30.1°F-1.1°C 26.4°F-3.1°C 86% Calm Calm -- 30.42 in1030.1 mb - 0.00 in0.0 mm 0.00 in0.0 mm
08:45 PM 30.2°F-1.0°C 26.5°F-3.1°C 86% Calm Calm -- 30.42 in1030.1 mb - 0.00 in0.0 mm 0.00 in0.0 mm
09:00 PM 30.2°F-1.0°C 26.5°F-3.1°C 86% Calm Calm -- 30.41 in1029.8 mb - 0.00 in0.0 mm 0.00 in0.0 mm
09:15 PM 30.5°F-0.8°C 26.8°F-2.9°C 86% Calm Calm -- 30.41 in1029.8 mb - 0.00 in0.0 mm 0.00 in0.0 mm
09:30 PM 30.5°F-0.8°C 26.8°F-2.9°C 86% Calm Calm -- 30.42 in1030.1 mb - 0.00 in0.0 mm 0.00 in0.0 mm
09:45 PM 30.5°F-0.8°C 26.8°F-2.9°C 86% Calm Calm -- 30.41 in1029.8 mb - 0.00 in0.0 mm 0.00 in0.0 mm
10:00 PM 30.4°F-0.9°C 26.7°F-2.9°C 86% Calm Calm -- 30.41 in1029.8 mb - 0.00 in0.0 mm 0.00 in0.0 mm
10:15 PM 30.8°F-0.7°C 27.1°F-2.7°C 86% Calm Calm -- 30.40 in1029.5 mb - 0.00 in0.0 mm 0.00 in0.0 mm
10:30 PM 30.2°F-1.0°C 26.8°F-2.9°C 87% Calm Calm -- 30.40 in1029.5 mb - 0.00 in0.0 mm 0.00 in0.0 mm
10:45 PM 30.3°F-0.9°C 26.9°F-2.8°C 87% Calm Calm -- 30.40 in1029.5 mb - 0.00 in0.0 mm 0.00 in0.0 mm
11:00 PM 30.6°F-0.8°C 27.1°F-2.7°C 87% Calm Calm -- 30.39 in1029.1 mb - 0.00 in0.0 mm 0.00 in0.0 mm
11:15 PM 30.6°F-0.8°C 27.2°F-2.7°C 87% Calm Calm -- 30.38 in1028.8 mb - 0.00 in0.0 mm 0.00 in0.0 mm
11:30 PM 30.6°F-0.8°C 27.2°F-2.7°C 87% Calm Calm -- 30.37 in1028.4 mb - 0.00 in0.0 mm 0.00 in0.0 mm
11:45 PM 30.5°F-0.8°C 27.4°F-2.6°C 88% Calm Calm 1.2 mph1.9 kmh 30.36 in1028.1 mb - 0.00 in0.0 mm 0.00 in0.0 mm